Time;durP1;ratioP1;P1;durP2;ratioP2;P2;SDS_P1;SDS_P2;PMS_P1;PMS_P2;Temp;Humidity;BMP_temperature;BMP_pressure;BME280_temperature;BME280_humidity;BME280_pressure;Samples;Min_cycle;Max_cycle;Signal;HPM_P1;HPM_P2
2023/07/18 01:08:10;;;;;;;;;;;;;;;;;;;;;
2023/07/18 03:57:20;;;;;;;6.60;2.65;;;;;;;12.25;77.21;101238.97;5978334;24;20031;-77
2023/07/18 04:46:26;;;;;;;5.22;2.67;;;;;;;12.31;77.74;101247.38;5980642;24;20531;-77
2023/07/18 04:50:20;;;;;;;4.43;2.90;;;;;;;12.41;77.21;101247.81;6009143;23;20081;-78
2023/07/18 11:10:09;;;;;;;6.38;2.47;;;;;;;23.46;38.38;100814.22;6179369;23;20071;-75
2023/07/18 15:27:30;;;;;;;8.10;2.17;;;;;;;37.69;17.82;100469.25;6072804;23;1130248;-74
2023/07/18 15:30:34;;;;;;;10.60;2.30;;;;;;;37.12;18.31;100466.28;6212874;23;20400;-74
2023/07/18 15:33:37;;;;;;;3.65;2.33;;;;;;;36.39;18.73;100458.31;6216913;23;20059;-75
2023/07/18 15:36:49;;;;;;;5.93;2.80;;;;;;;34.91;19.82;100456.69;6216905;23;20028;-75
2023/07/18 15:39:53;;;;;;;3.60;1.90;;;;;;;34.01;20.40;100454.47;6198494;23;20104;-75
2023/07/18 15:42:58;;;;;;;7.28;2.03;;;;;;;34.23;20.49;100446.56;6215520;23;20027;-75
2023/07/18 15:46:03;;;;;;;5.43;1.90;;;;;;;33.80;21.06;100445.03;6214100;23;20031;-81
2023/07/18 15:49:08;;;;;;;6.45;2.03;;;;;;;34.71;20.62;100442.69;6214272;23;20099;-75
2023/07/18 15:52:12;;;;;;;3.50;1.83;;;;;;;36.49;19.24;100436.63;6214532;23;20086;-76
2023/07/18 15:55:16;;;;;;;5.15;1.90;;;;;;;36.82;18.37;100428.59;6214961;23;20098;-74
2023/07/18 15:58:20;;;;;;;4.68;2.50;;;;;;;37.31;17.74;100420.38;6197788;23;20028;-74
2023/07/18 16:01:27;;;;;;;5.57;1.92;;;;;;;38.29;17.39;100419.94;6216496;23;20477;-75
2023/07/18 16:04:34;;;;;;;5.50;2.22;;;;;;;38.25;17.29;100416.09;6198066;23;20035;-73
2023/07/18 16:07:44;;;;;;;4.45;2.10;;;;;;;36.25;18.17;100422.47;6198482;23;20028;-74
2023/07/18 16:10:50;;;;;;;5.93;2.17;;;;;;;37.44;17.67;100415.28;6216317;23;20024;-74
2023/07/18 16:13:53;;;;;;;5.13;2.10;;;;;;;36.59;18.83;100403.28;6216557;23;20071;-74
2023/07/18 16:17:00;;;;;;;6.88;2.17;;;;;;;36.12;19.03;100403.75;6198188;23;20027;-74
2023/07/18 16:20:05;;;;;;;6.57;2.45;;;;;;;35.17;19.91;100397.41;6216381;23;20032;-73
2023/07/18 16:23:08;;;;;;;4.10;1.80;;;;;;;34.11;20.70;100395.06;6216423;23;20520;-72
2023/07/18 16:26:13;;;;;;;5.95;2.50;;;;;;;32.51;22.42;100390.44;6216464;23;20096;-75
2023/07/18 16:29:20;;;;;;;6.68;2.17;;;;;;;32.03;23.27;100386.59;6186085;23;20371;-74
2023/07/18 16:32:27;;;;;;;5.32;2.90;;;;;;;31.46;24.06;100385.88;6186166;23;20024;-76
2023/07/18 16:35:30;;;;;;;4.57;2.78;;;;;;;31.15;25.44;100376.75;6167927;23;20024;-74
2023/07/18 16:38:34;;;;;;;8.23;5.75;;;;;;;30.64;25.65;100382.22;6186286;23;20027;-75
2023/07/18 16:41:41;;;;;;;13.57;7.78;;;;;;;30.69;26.38;100377.00;6186239;23;20020;-74
2023/07/18 16:44:49;;;;;;;4.20;2.35;;;;;;;29.92;27.44;100371.44;6186081;23;20075;-73
2023/07/18 16:47:52;;;;;;;3.83;2.08;;;;;;;29.24;27.80;100366.28;6186153;23;20410;-73
2023/07/18 16:50:56;;;;;;;8.15;3.60;;;;;;;29.65;27.23;100349.94;6185953;23;20027;-73
2023/07/18 16:54:02;;;;;;;7.28;2.00;;;;;;;28.72;27.65;100360.59;6168017;23;20028;-77
2023/07/18 16:57:10;;;;;;;4.07;1.80;;;;;;;28.93;27.48;100361.44;6185069;23;20032;-76
2023/07/18 17:00:18;;;;;;;4.82;2.05;;;;;;;29.13;27.82;100353.41;6166466;23;20060;-77
2023/07/18 17:03:25;;;;;;;7.75;2.10;;;;;;;28.83;29.12;100355.63;6150607;23;20043;-76
2023/07/18 17:06:29;;;;;;;6.82;2.22;;;;;;;28.62;28.94;100357.47;6185639;23;20060;-77
2023/07/18 17:09:33;;;;;;;6.47;2.45;;;;;;;28.51;28.50;100364.22;6167708;23;20028;-77
2023/07/18 17:12:40;;;;;;;6.65;2.05;;;;;;;28.18;28.83;100358.69;6184916;23;20059;-75
2023/07/18 17:15:44;;;;;;;6.82;3.78;;;;;;;28.15;29.58;100359.09;6184127;23;20028;-78
2023/07/18 17:18:47;;;;;;;7.68;2.72;;;;;;;27.94;29.97;100353.78;6185751;23;20032;-77
2023/07/18 17:21:51;;;;;;;9.15;2.88;;;;;;;27.52;30.81;100353.69;6185786;23;20028;-77
2023/07/18 17:25:00;;;;;;;7.65;2.38;;;;;;;27.50;30.46;100345.00;6168192;23;20063;-74
2023/07/18 17:28:05;;;;;;;4.03;2.47;;;;;;;27.62;30.60;100350.66;6185317;23;20028;-76
2023/07/18 17:31:10;;;;;;;4.47;2.10;;;;;;;27.70;30.81;100344.31;6185197;23;20036;-75
2023/07/18 17:34:14;;;;;;;4.45;1.83;;;;;;;27.65;30.78;100341.38;6185531;23;20477;-76
2023/07/18 17:37:21;;;;;;;4.07;1.90;;;;;;;27.53;32.07;100336.53;6185489;23;20023;-76
2023/07/18 17:40:27;;;;;;;6.40;2.55;;;;;;;27.38;33.39;100325.09;6184277;23;20410;-76
2023/07/18 17:43:33;;;;;;;4.63;1.92;;;;;;;27.29;33.37;100342.38;6184619;23;20093;-77
2023/07/18 17:46:44;;;;;;;4.65;2.10;;;;;;;27.09;34.15;100337.63;6166968;23;20039;-76
2023/07/18 17:49:48;;;;;;;5.53;2.28;;;;;;;26.82;35.90;100333.00;6185072;23;20039;-76
2023/07/18 17:52:56;;;;;;;5.35;1.83;;;;;;;26.74;35.85;100341.16;6184946;23;20370;-76
2023/07/18 17:56:00;;;;;;;6.45;2.17;;;;;;;26.53;36.16;100336.63;6184992;23;20140;-77
2023/07/18 17:59:05;;;;;;;5.82;2.15;;;;;;;26.55;35.69;100334.59;6184823;23;20079;-77
2023/07/18 18:02:09;;;;;;;5.70;2.20;;;;;;;26.54;35.43;100333.72;6185037;23;20024;-77
2023/07/18 18:05:43;;;;;;;5.28;2.00;;;;;;;26.43;36.06;100327.00;6184543;23;20351;-78
2023/07/18 18:08:49;;;;;;;4.15;2.03;;;;;;;26.21;36.21;100322.59;6185016;23;20105;-77
2023/07/18 18:11:55;;;;;;;4.60;2.13;;;;;;;26.05;36.88;100320.94;6183261;23;20024;-77
2023/07/18 18:14:59;;;;;;;4.43;2.05;;;;;;;25.88;37.33;100316.81;6184796;23;20024;-75
2023/07/18 18:18:02;;;;;;;5.68;2.03;;;;;;;25.70;37.17;100314.47;6184616;23;20028;-76
2023/07/18 18:21:06;;;;;;;6.60;2.20;;;;;;;25.49;37.75;100317.84;6165800;23;20116;-72
2023/07/18 18:24:10;;;;;;;5.95;2.50;;;;;;;25.37;38.45;100320.16;6184201;23;20074;-73
2023/07/18 18:27:13;;;;;;;4.78;1.90;;;;;;;25.20;39.09;100324.78;6184647;23;20094;-72
2023/07/18 18:30:16;;;;;;;6.35;2.03;;;;;;;25.05;39.83;100338.09;6185032;23;20075;-73
2023/07/18 18:33:22;;;;;;;7.97;2.28;;;;;;;24.94;41.83;100330.47;6185041;23;20028;-72
2023/07/18 18:36:29;;;;;;;5.45;2.53;;;;;;;24.90;42.45;100328.34;6184744;23;20108;-71
2023/07/18 18:39:33;;;;;;;5.70;2.20;;;;;;;24.72;43.24;100337.47;6184710;23;20055;-73
2023/07/18 18:42:38;;;;;;;5.78;2.25;;;;;;;24.61;44.25;100334.41;6185265;23;20140;-73
2023/07/18 18:45:42;;;;;;;5.90;2.10;;;;;;;24.40;44.47;100337.63;6186867;23;20055;-74
2023/07/18 18:48:46;;;;;;;4.70;1.73;;;;;;;24.28;44.95;100340.72;6187027;23;20028;-75
2023/07/18 18:51:52;;;;;;;6.20;1.98;;;;;;;24.05;45.13;100339.78;6185801;23;20359;-76
2023/07/18 18:54:56;;;;;;;4.10;1.70;;;;;;;23.90;45.78;100342.34;6187026;23;20146;-74
2023/07/18 18:58:00;;;;;;;4.97;2.13;;;;;;;23.73;45.24;100336.19;6187054;23;20055;-75
2023/07/18 19:01:03;;;;;;;5.93;1.80;;;;;;;23.61;45.60;100333.03;6184085;23;20024;-73
2023/07/18 19:04:06;;;;;;;5.78;1.95;;;;;;;23.53;46.04;100335.72;6186004;23;20028;-73
2023/07/18 19:07:10;;;;;;;5.07;2.05;;;;;;;23.38;47.38;100332.03;6185422;23;20027;-73
2023/07/18 19:10:13;;;;;;;5.78;2.15;;;;;;;23.19;50.74;100338.56;6186552;23;20035;-72
2023/07/18 19:13:17;;;;;;;5.13;2.13;;;;;;;23.07;51.00;100335.41;6184675;23;20027;-72
2023/07/18 19:16:21;;;;;;;4.18;1.98;;;;;;;22.95;49.98;100334.06;6185409;23;20071;-71
2023/07/18 19:19:25;;;;;;;3.92;2.30;;;;;;;22.88;50.15;100335.69;6183963;23;20453;-72
2023/07/18 19:22:28;;;;;;;7.05;2.38;;;;;;;22.85;49.54;100347.50;6184762;23;20028;-72
2023/07/18 19:25:31;;;;;;;6.18;2.30;;;;;;;22.57;48.35;100343.44;6186255;23;20044;-72
2023/07/18 19:28:35;;;;;;;3.53;1.80;;;;;;;22.35;49.51;100351.03;6185938;23;20033;-72
2023/07/18 19:31:40;;;;;;;6.10;2.33;;;;;;;22.23;52.68;100349.63;6185498;23;20079;-72
2023/07/18 19:34:46;;;;;;;5.18;2.33;;;;;;;22.16;50.65;100351.28;6185567;23;20506;-71
2023/07/18 19:37:54;;;;;;;4.72;2.25;;;;;;;22.10;49.56;100365.19;6183982;23;20020;-72
2023/07/18 19:40:58;;;;;;;7.20;2.30;;;;;;;21.88;49.13;100372.72;6168040;23;20095;-72
2023/07/18 19:44:04;;;;;;;5.28;2.03;;;;;;;21.89;49.50;100376.22;6185510;23;20027;-73
2023/07/18 19:47:07;;;;;;;5.03;2.30;;;;;;;21.90;49.21;100383.22;6185260;23;20410;-72
2023/07/18 19:50:10;;;;;;;4.72;2.13;;;;;;;21.61;50.32;100383.53;6185888;23;20027;-73
2023/07/18 19:53:14;;;;;;;4.75;2.45;;;;;;;21.51;52.48;100378.31;6186175;23;20048;-72
2023/07/18 19:56:18;;;;;;;7.93;2.67;;;;;;;21.41;51.87;100391.69;6185787;23;20079;-72
2023/07/18 19:59:23;;;;;;;4.60;2.47;;;;;;;21.23;51.44;100385.50;6186046;23;20028;-73
2023/07/18 20:02:26;;;;;;;8.18;3.00;;;;;;;21.25;52.76;100392.34;6186011;23;20078;-72
2023/07/18 20:05:33;;;;;;;9.52;2.33;;;;;;;21.13;52.98;100381.09;6186191;23;20023;-73
2023/07/18 20:08:42;;;;;;;9.02;2.13;;;;;;;21.05;51.98;100382.84;6186198;23;20478;-73
2023/07/18 20:11:45;;;;;;;5.55;2.15;;;;;;;20.82;54.26;100391.25;6186015;23;20024;-73
2023/07/18 20:15:06;;;;;;;4.57;2.42;;;;;;;20.72;53.97;100398.44;6185795;23;20067;-75
2023/07/18 20:18:11;;;;;;;7.22;3.35;;;;;;;20.68;53.80;100397.09;6184635;23;20359;-78
2023/07/18 20:21:14;;;;;;;11.65;3.38;;;;;;;20.60;52.95;100392.50;6186166;23;20023;-73
2023/07/18 20:24:20;;;;;;;5.00;2.40;;;;;;;20.58;53.91;100377.69;6186052;23;20355;-72
2023/07/18 20:27:23;;;;;;;3.72;2.15;;;;;;;20.46;56.31;100385.00;6167744;23;20079;-72
2023/07/18 20:30:27;;;;;;;10.45;2.97;;;;;;;20.41;56.71;100390.72;6186116;23;20486;-72
2023/07/18 20:33:30;;;;;;;6.07;2.83;;;;;;;20.38;56.30;100387.53;6186070;23;20039;-73
2023/07/18 20:36:33;;;;;;;7.13;2.30;;;;;;;20.23;55.04;100392.50;6186187;23;20028;-73
2023/07/18 20:39:37;;;;;;;5.85;2.10;;;;;;;20.12;54.91;100400.63;6185529;23;20103;-73
2023/07/18 20:42:41;;;;;;;5.55;2.63;;;;;;;19.94;54.77;100388.13;6186088;23;20402;-74
2023/07/18 20:46:03;;;;;;;4.10;2.30;;;;;;;19.81;55.45;100398.19;6185894;23;20039;-72
2023/07/18 20:49:07;;;;;;;6.00;2.58;;;;;;;19.91;55.76;100392.88;6185843;23;20028;-74
2023/07/18 20:52:13;;;;;;;10.80;2.70;;;;;;;19.80;56.00;100395.69;6185849;23;20074;-72
2023/07/18 20:55:18;;;;;;;5.75;2.20;;;;;;;19.73;56.81;100393.63;6185770;23;20087;-73
2023/07/18 20:58:22;;;;;;;5.70;2.67;;;;;;;19.72;57.06;100388.47;6185824;23;20079;-73
2023/07/18 21:01:45;;;;;;;4.47;2.60;;;;;;;19.62;57.07;100396.41;6185899;23;20473;-72
2023/07/18 21:04:48;;;;;;;5.22;2.75;;;;;;;19.53;57.01;100407.88;6186037;23;20389;-72
2023/07/18 21:08:09;;;;;;;12.55;2.97;;;;;;;19.43;56.24;100405.22;6185454;23;20063;-72
2023/07/18 21:11:14;;;;;;;4.60;2.20;;;;;;;19.44;56.58;100395.44;6185659;23;20084;-72
2023/07/18 21:14:18;;;;;;;5.05;2.58;;;;;;;19.26;58.03;100396.13;6185707;23;20425;-72
2023/07/18 21:17:22;;;;;;;7.78;2.47;;;;;;;19.22;57.72;100391.25;6185773;23;20534;-72
2023/07/18 21:20:28;;;;;;;5.47;2.03;;;;;;;19.24;57.28;100400.75;6185639;23;20358;-72
2023/07/18 21:23:32;;;;;;;7.43;3.05;;;;;;;19.12;57.89;100396.56;6185733;23;20359;-72
2023/07/18 21:26:35;;;;;;;3.88;2.47;;;;;;;19.08;59.16;100399.59;6185570;23;20028;-73
2023/07/18 21:29:39;;;;;;;5.85;2.90;;;;;;;18.98;58.66;100395.13;6137191;23;20352;-71
2023/07/18 21:32:43;;;;;;;5.28;2.40;;;;;;;18.93;58.34;100402.66;6137786;23;20032;-72
2023/07/18 21:35:46;;;;;;;4.47;2.40;;;;;;;18.93;57.37;100396.53;6155633;23;20024;-72
2023/07/18 21:38:53;;;;;;;6.30;2.47;;;;;;;18.79;58.40;100398.59;6155684;23;20037;-72
2023/07/18 21:41:57;;;;;;;9.88;2.65;;;;;;;18.88;58.09;100396.09;6155636;23;20021;-72
2023/07/18 21:45:02;;;;;;;6.78;2.60;;;;;;;18.76;58.92;100396.22;6137556;23;20032;-72
2023/07/18 21:48:05;;;;;;;12.05;2.92;;;;;;;18.79;59.69;100395.97;6137677;23;20517;-72
2023/07/18 21:51:08;;;;;;;6.68;2.30;;;;;;;18.73;60.46;100383.25;6155372;23;20029;-72
2023/07/18 21:54:13;;;;;;;7.32;2.67;;;;;;;18.57;60.73;100385.56;6155357;23;20029;-72
2023/07/18 21:57:16;;;;;;;7.03;2.53;;;;;;;18.50;60.75;100385.22;6155417;23;20024;-72
2023/07/18 22:00:21;;;;;;;3.97;2.53;;;;;;;18.32;60.59;100382.41;6155194;23;20053;-72
2023/07/18 22:03:26;;;;;;;4.18;2.40;;;;;;;18.40;60.51;100392.31;6155403;23;20152;-72
2023/07/18 22:06:29;;;;;;;4.50;2.30;;;;;;;18.40;60.33;100389.66;6155193;23;20420;-72
2023/07/18 22:09:32;;;;;;;6.72;2.78;;;;;;;18.20;61.41;100379.97;6155402;23;20040;-72
2023/07/18 22:12:36;;;;;;;4.70;2.38;;;;;;;18.24;61.04;100384.03;6155336;23;20045;-72
2023/07/18 22:15:40;;;;;;;5.03;2.70;;;;;;;18.40;60.06;100383.53;6155470;23;20040;-72
2023/07/18 22:18:44;;;;;;;5.80;2.53;;;;;;;18.53;59.73;100378.84;6155402;23;20024;-72
2023/07/18 22:21:47;;;;;;;7.72;2.88;;;;;;;18.27;60.02;100387.25;6155514;23;20025;-72
2023/07/18 22:24:51;;;;;;;8.63;3.50;;;;;;;18.22;61.05;100392.13;6155465;23;20024;-72
2023/07/18 22:27:54;;;;;;;4.18;2.20;;;;;;;18.20;61.90;100383.47;6168161;23;20032;-72
2023/07/18 22:30:57;;;;;;;6.32;2.50;;;;;;;18.15;61.41;100382.19;6184953;23;20087;-72
2023/07/18 22:34:00;;;;;;;3.90;2.40;;;;;;;18.03;61.82;100386.72;6185074;23;20028;-72
2023/07/18 22:37:04;;;;;;;9.63;2.80;;;;;;;17.83;62.53;100378.66;6185145;23;20485;-72
2023/07/18 22:40:07;;;;;;;9.73;2.90;;;;;;;17.68;62.60;100382.59;6185145;23;20083;-72
2023/07/18 22:43:11;;;;;;;5.82;3.03;;;;;;;17.57;63.07;100380.84;6184946;23;20039;-71
2023/07/18 22:46:14;;;;;;;5.25;2.72;;;;;;;17.65;63.05;100380.22;6185112;23;20462;-72
2023/07/18 22:49:20;;;;;;;7.10;2.47;;;;;;;17.57;63.01;100380.00;6184963;23;20104;-71
2023/07/18 22:52:23;;;;;;;7.28;2.70;;;;;;;17.47;63.55;100379.09;6184840;23;20521;-72
2023/07/18 22:55:26;;;;;;;6.05;2.55;;;;;;;17.53;63.01;100384.72;6185114;23;20028;-72
2023/07/18 22:58:29;;;;;;;4.90;2.90;;;;;;;17.42;63.85;100382.97;6184925;23;20082;-72
2023/07/18 23:01:33;;;;;;;8.95;2.90;;;;;;;17.26;64.15;100385.22;6166791;23;20051;-72
2023/07/18 23:04:36;;;;;;;5.90;2.83;;;;;;;17.25;63.67;100380.88;6185080;23;20096;-72
2023/07/18 23:07:58;;;;;;;5.68;2.53;;;;;;;17.19;65.29;100389.31;6184999;23;20047;-72
2023/07/18 23:11:20;;;;;;;7.45;2.72;;;;;;;17.16;65.09;100392.19;6184882;23;20355;-72
2023/07/18 23:14:23;;;;;;;6.18;2.92;;;;;;;16.98;65.20;100394.56;6184925;23;20466;-72
2023/07/18 23:17:26;;;;;;;6.60;2.95;;;;;;;16.84;65.41;100395.66;6184933;23;20040;-72
2023/07/18 23:20:30;;;;;;;5.53;2.80;;;;;;;16.76;65.92;100386.69;6184899;23;20028;-71
2023/07/18 23:23:33;;;;;;;10.38;3.22;;;;;;;16.79;65.64;100387.28;6184886;23;20046;-71
2023/07/18 23:26:36;;;;;;;8.32;2.75;;;;;;;16.74;65.57;100392.88;6184988;23;20023;-71
2023/07/18 23:29:40;;;;;;;6.15;2.47;;;;;;;16.78;64.93;100401.44;6185052;23;20100;-72
2023/07/18 23:32:43;;;;;;;5.90;2.45;;;;;;;16.94;65.60;100398.38;6186683;23;20099;-72
2023/07/18 23:35:47;;;;;;;6.00;2.60;;;;;;;16.88;65.54;100399.75;6186695;23;20024;-72
2023/07/18 23:38:51;;;;;;;5.68;2.78;;;;;;;16.77;65.94;100405.03;6186667;23;20078;-72
2023/07/18 23:41:54;;;;;;;7.25;2.80;;;;;;;16.80;66.28;100394.22;6186636;23;20055;-71
2023/07/18 23:44:58;;;;;;;7.07;2.78;;;;;;;16.71;66.54;100387.84;6186498;23;20032;-72
2023/07/18 23:48:01;;;;;;;7.93;3.00;;;;;;;16.70;66.54;100395.91;6186497;23;20469;-72
2023/07/18 23:51:04;;;;;;;7.00;2.58;;;;;;;16.83;65.60;100395.78;6186561;23;20362;-72
2023/07/18 23:54:08;;;;;;;5.93;3.28;;;;;;;16.81;66.01;100403.81;6186490;23;20028;-71
2023/07/18 23:57:11;;;;;;;6.68;2.50;;;;;;;16.54;67.23;100413.94;6186359;23;20405;-72
